createdAt,value
2016-04-04T00:01:21.393Z,10.7
2016-04-04T00:04:24.026Z,10.7
2016-04-04T00:07:33.253Z,10.7
2016-04-04T00:10:43.151Z,10.6
2016-04-04T00:13:55.850Z,10.6
2016-04-04T00:17:13.155Z,10.6
2016-04-04T00:20:20.788Z,10.6
2016-04-04T00:23:23.483Z,10.5
2016-04-04T00:26:37.944Z,10.5
2016-04-04T00:29:43.609Z,10.5
2016-04-04T00:32:55.932Z,10.4
2016-04-04T00:36:13.456Z,10.5
2016-04-04T00:39:21.277Z,10.4
2016-04-04T00:42:24.081Z,10.4
2016-04-04T00:45:36.684Z,10.4
2016-04-04T00:48:49.582Z,10.4
2016-04-04T00:52:02.077Z,10.4
2016-04-04T00:55:19.913Z,10.4
2016-04-04T00:58:23.015Z,10.4
2016-04-04T01:01:33.882Z,10.4
2016-04-04T01:04:44.594Z,10.4
2016-04-04T01:07:53.805Z,10.4
2016-04-04T01:11:03.770Z,10.3
2016-04-04T01:14:18.464Z,10.3
2016-04-04T01:17:21.441Z,10.3
2016-04-04T01:20:34.214Z,10.3
2016-04-04T01:23:50.630Z,10.3
2016-04-04T01:26:59.108Z,10.3
2016-04-04T01:30:14.976Z,10.2
2016-04-04T01:33:18.032Z,10.3
2016-04-04T01:36:27.915Z,10.2
2016-04-04T01:39:37.220Z,10.2
2016-04-04T01:42:50.212Z,10.2
2016-04-04T01:46:02.706Z,10.2
2016-04-04T01:49:20.433Z,10.1
2016-04-04T01:52:23.550Z,10.1
2016-04-04T01:55:33.105Z,10.1
2016-04-04T01:58:43.926Z,10.1
2016-04-04T02:01:53.377Z,10.1
2016-04-04T02:05:05.856Z,10.1
2016-04-04T02:08:18.301Z,10.1
2016-04-04T02:11:28.404Z,10.1
2016-04-04T02:14:35.912Z,10
2016-04-04T02:17:50.811Z,10
2016-04-04T02:21:03.634Z,9.9
2016-04-04T02:24:21.220Z,9.8
2016-04-04T02:27:24.197Z,9.8
2016-04-04T02:30:37.033Z,9.8
2016-04-04T02:33:49.135Z,9.8
2016-04-04T02:36:58.690Z,9.8
2016-04-04T02:40:14.388Z,9.7
2016-04-04T02:43:22.256Z,9.7
2016-04-04T02:46:25.170Z,9.7
2016-04-04T02:49:37.959Z,9.6
2016-04-04T02:52:50.577Z,9.6
2016-04-04T02:56:01.413Z,9.6
2016-04-04T02:59:19.111Z,9.6
2016-04-04T03:02:21.932Z,9.6
2016-04-04T03:05:36.518Z,9.6
2016-04-04T03:08:41.254Z,9.7
2016-04-04T03:11:50.183Z,9.7
2016-04-04T03:15:02.426Z,9.7
2016-04-04T03:18:20.265Z,9.7
2016-04-04T03:21:23.117Z,9.7
2016-04-04T03:24:35.093Z,9.7
2016-04-04T03:27:47.117Z,9.7
2016-04-04T03:30:57.922Z,9.7
2016-04-04T03:34:07.230Z,9.6
2016-04-04T03:37:19.722Z,9.6
2016-04-04T03:40:32.027Z,9.6
2016-04-04T03:43:39.598Z,9.6
2016-04-04T03:46:54.763Z,9.7
2016-04-04T03:50:06.163Z,9.7
2016-04-04T03:53:18.687Z,9.7
2016-04-04T03:56:29.851Z,9.7
2016-04-04T03:59:42.594Z,9.7
2016-04-04T04:02:55.164Z,9.7
2016-04-04T04:06:13.004Z,9.7
2016-04-04T04:09:20.856Z,9.6
2016-04-04T04:12:23.723Z,9.7
2016-04-04T04:15:36.388Z,9.7
2016-04-04T04:18:46.411Z,9.7
2016-04-04T04:21:58.498Z,9.7
2016-04-04T04:25:15.993Z,9.7
2016-04-04T04:28:18.799Z,9.6
2016-04-04T04:31:30.618Z,9.6
2016-04-04T04:34:43.454Z,9.6
2016-04-04T04:37:54.072Z,9.5
2016-04-04T04:41:05.065Z,9.5
2016-04-04T04:44:21.372Z,9.5
2016-04-04T04:47:24.161Z,9.6
2016-04-04T04:50:35.263Z,9.6
2016-04-04T04:53:47.771Z,9.6
2016-04-04T04:56:57.826Z,9.7
2016-04-04T05:00:15.509Z,9.7
2016-04-04T05:03:18.377Z,9.8
2016-04-04T05:06:31.087Z,9.8
2016-04-04T05:09:42.142Z,9.8
2016-04-04T05:12:52.167Z,9.9
2016-04-04T05:16:04.987Z,10
2016-04-04T05:19:20.529Z,10
2016-04-04T05:22:23.490Z,10.1
2016-04-04T05:25:35.998Z,10.2
2016-04-04T05:28:47.256Z,10.3
2016-04-04T05:31:56.936Z,10.3
2016-04-04T05:35:14.821Z,10.4
2016-04-04T05:38:22.690Z,10.4
2016-04-04T05:41:25.525Z,10.5
2016-04-04T05:44:36.267Z,10.6
2016-04-04T05:47:49.011Z,10.6
2016-04-04T05:50:59.144Z,10.7
2016-04-04T05:54:16.920Z,10.8
2016-04-04T05:57:19.881Z,10.9
2016-04-04T06:00:29.263Z,11
2016-04-04T06:03:41.975Z,11.1
2016-04-04T06:06:54.999Z,11.1
2016-04-04T06:10:04.554Z,11.1
2016-04-04T06:13:21.689Z,11.2
2016-04-04T06:16:24.791Z,11.3
2016-04-04T06:19:34.675Z,11.5
2016-04-04T06:22:47.464Z,11.6
2016-04-04T06:25:59.237Z,11.8
2016-04-04T06:29:16.233Z,12
2016-04-04T06:32:19.428Z,12.2
2016-04-04T06:35:32.170Z,12.4
2016-04-04T06:38:42.241Z,12.5
2016-04-04T06:41:52.078Z,12.5
2016-04-04T06:45:01.414Z,12.6
2016-04-04T06:48:19.347Z,12.7
2016-04-04T06:51:22.463Z,12.8
2016-04-04T06:54:31.581Z,12.9
2016-04-04T06:57:44.105Z,12.9
2016-04-04T07:00:54.758Z,12.9
2016-04-04T07:04:05.985Z,12.9
2016-04-04T07:07:21.012Z,12.9
2016-04-04T07:10:22.066Z,12.9
2016-04-04T07:13:36.746Z,12.9
2016-04-04T07:16:49.754Z,13.1
2016-04-04T07:20:00.809Z,13.3
2016-04-04T07:23:18.649Z,13.5
2016-04-04T07:26:21.907Z,13.7
2016-04-04T07:29:34.273Z,13.9
2016-04-04T07:32:45.251Z,13.8
2016-04-04T07:35:57.945Z,14.1
2016-04-04T07:39:16.129Z,14.6
2016-04-04T07:42:19.558Z,15.2
2016-04-04T07:45:33.098Z,15.7
2016-04-04T07:48:43.966Z,16
2016-04-04T07:51:55.411Z,16.2
2016-04-04T07:55:13.874Z,16.6
2016-04-04T07:58:22.618Z,17
2016-04-04T08:01:26.203Z,17
2016-04-04T08:04:36.180Z,16.7
2016-04-04T08:07:49.017Z,16.5
2016-04-04T08:10:59.884Z,16.2
2016-04-04T08:14:14.425Z,16
2016-04-04T08:17:22.497Z,15.8
2016-04-04T08:20:25.864Z,15.9
2016-04-04T08:23:38.872Z,16
2016-04-04T08:26:49.958Z,16.3
2016-04-04T08:30:01.342Z,16.7
2016-04-04T08:33:18.420Z,17.3
2016-04-04T08:36:22.034Z,17.6
2016-04-04T08:39:33.473Z,17.9
2016-04-04T08:42:48.515Z,18.2
2016-04-04T08:45:58.644Z,18.6
2016-04-04T08:49:17.227Z,19.2
2016-04-04T08:52:21.389Z,20.3
2016-04-04T08:55:34.943Z,21.8
2016-04-04T08:58:49.278Z,23
2016-04-04T09:02:00.005Z,23.1
2016-04-04T09:05:18.469Z,22.6
2016-04-04T09:08:22.493Z,22.3
2016-04-04T09:11:33.876Z,21.9
2016-04-04T09:14:47.634Z,22
2016-04-04T09:18:02.032Z,24.1
2016-04-04T09:21:21.356Z,26.2
2016-04-04T09:24:27.317Z,26.8
2016-04-04T09:27:41.044Z,26.3
2016-04-04T09:30:53.349Z,24.8
2016-04-04T09:34:07.794Z,23.6
2016-04-04T09:37:19.524Z,22.5
2016-04-04T09:40:32.907Z,21.3
2016-04-04T09:43:43.774Z,20.5
2016-04-04T09:46:56.017Z,19.7
2016-04-04T09:50:14.731Z,19.2
2016-04-04T09:53:23.785Z,18.9
2016-04-04T09:56:27.606Z,18.6
2016-04-04T09:59:36.833Z,18.4
2016-04-04T10:02:48.045Z,18.4
2016-04-04T10:06:00.474Z,18.4
2016-04-04T10:09:18.329Z,18.4
2016-04-04T10:12:21.388Z,18.4
2016-04-04T10:15:36.115Z,18.7
2016-04-04T10:18:48.717Z,18.9
2016-04-04T10:22:03.475Z,18.9
2016-04-04T10:25:19.814Z,18.8
2016-04-04T10:28:25.041Z,18.9
2016-04-04T10:31:39.939Z,18.9
2016-04-04T10:34:52.855Z,18.8
2016-04-04T10:38:07.690Z,18.8
2016-04-04T10:41:22.373Z,18.9
2016-04-04T10:44:35.178Z,19
2016-04-04T10:47:49.920Z,19.2
2016-04-04T10:51:04.787Z,19.3
2016-04-04T10:54:21.298Z,19.4
2016-04-04T10:57:26.650Z,19.3
2016-04-04T11:00:41.627Z,19.6
2016-04-04T11:03:56.729Z,19.7
2016-04-04T11:07:15.099Z,19.6
2016-04-04T11:10:20.304Z,19.6
2016-04-04T11:13:35.093Z,19.4
2016-04-04T11:16:49.867Z,19.3
2016-04-04T11:20:03.609Z,19.1
2016-04-04T11:23:23.542Z,19.2
2016-04-04T11:26:28.691Z,19.4
2016-04-04T11:29:41.527Z,19.5
2016-04-04T11:32:56.285Z,19.6
2016-04-04T11:36:16.061Z,19.7
2016-04-04T11:39:21.262Z,19.8
2016-04-04T11:42:33.067Z,19.9
2016-04-04T11:45:45.731Z,20
2016-04-04T11:48:59.802Z,20
2016-04-04T11:52:18.422Z,19.9
2016-04-04T11:55:23.571Z,19.8
2016-04-04T11:58:38.094Z,19.8
2016-04-04T12:01:53.040Z,19.7
2016-04-04T12:05:07.704Z,19.5
2016-04-04T12:08:24.120Z,19.3
2016-04-04T12:11:29.364Z,19.3
2016-04-04T12:14:44.106Z,19.4
2016-04-04T12:17:56.552Z,19.5
2016-04-04T12:21:16.250Z,19.3
2016-04-04T12:24:21.571Z,19.4
2016-04-04T12:27:34.157Z,19.4
2016-04-04T12:30:47.665Z,19.6
2016-04-04T12:34:00.501Z,19.7
2016-04-04T12:40:25.426Z,19.7
2016-04-04T12:43:40.184Z,19.7
2016-04-04T12:46:54.880Z,19.7
2016-04-04T12:50:09.809Z,19.6
2016-04-04T12:53:24.710Z,19.3
2016-04-04T12:56:37.124Z,19.2
2016-04-04T12:59:50.383Z,19.2
2016-04-04T13:03:03.735Z,19.2
2016-04-04T13:06:21.543Z,19.3
2016-04-04T13:09:26.770Z,19.3
2016-04-04T13:12:39.387Z,19.4
2016-04-04T13:15:53.411Z,19.3
2016-04-04T13:19:06.466Z,19.3
2016-04-04T13:22:21.179Z,19.4
2016-04-04T13:25:35.953Z,19.4
2016-04-04T13:28:50.539Z,19.4
2016-04-04T13:32:05.219Z,19.5
2016-04-04T13:35:25.027Z,19.5
2016-04-04T13:38:30.098Z,19.6
2016-04-04T13:41:43.261Z,19.6
2016-04-04T13:44:57.379Z,19.7
2016-04-04T13:48:15.622Z,19.8
2016-04-04T13:51:20.617Z,19.8
2016-04-04T13:54:33.078Z,19.9
2016-04-04T13:57:47.680Z,19.7
2016-04-04T14:01:00.360Z,19.6
2016-04-04T14:04:19.386Z,19.5
2016-04-04T14:07:24.363Z,19.5
2016-04-04T14:10:38.621Z,19.5
2016-04-04T14:13:52.582Z,19.6
2016-04-04T14:17:06.106Z,19.6
2016-04-04T14:20:22.976Z,19.6
2016-04-04T14:23:27.578Z,19.6
2016-04-04T14:26:41.930Z,19.6
2016-04-04T14:29:56.110Z,19.5
2016-04-04T14:33:10.243Z,19.5
2016-04-04T14:36:20.457Z,19.4
2016-04-04T14:39:34.309Z,19.4
2016-04-04T14:42:46.926Z,19.4
2016-04-04T14:46:01.606Z,19.5
2016-04-04T14:49:18.351Z,19.5
2016-04-04T14:52:23.265Z,19.5
2016-04-04T14:55:39.289Z,19.4
2016-04-04T14:58:46.735Z,19.3
2016-04-04T15:01:58.446Z,19.3
2016-04-04T15:05:17.972Z,19.3
2016-04-04T15:08:23.105Z,19.3
2016-04-04T15:11:34.676Z,19.3
2016-04-04T15:14:49.387Z,19.3
2016-04-04T15:18:02.957Z,19.3
2016-04-04T15:24:25.836Z,19.2
2016-04-04T15:27:40.422Z,19.2
2016-04-04T15:30:53.805Z,19.2
2016-04-04T15:34:08.485Z,19.3
2016-04-04T15:37:23.152Z,19.2
2016-04-04T15:40:37.629Z,19.1
2016-04-04T15:43:50.637Z,19
2016-04-04T15:47:03.270Z,18.9
2016-04-04T15:50:22.750Z,18.8
2016-04-04T15:53:27.679Z,18.7
2016-04-04T15:56:40.593Z,18.6
2016-04-04T15:59:55.149Z,18.5
2016-04-04T16:03:06.516Z,18.5
2016-04-04T16:06:23.979Z,18.5
2016-04-04T16:09:28.727Z,18.4
2016-04-04T16:12:40.751Z,18.4
2016-04-04T16:15:52.196Z,18.5
2016-04-04T16:19:06.658Z,18.5
2016-04-04T16:22:22.559Z,18.5
2016-04-04T16:25:27.036Z,18.4
2016-04-04T16:28:40.185Z,18.3
2016-04-04T16:31:52.286Z,18.1
2016-04-04T16:35:05.560Z,17.9
2016-04-04T16:38:22.321Z,17.7
2016-04-04T16:41:26.454Z,17.6
2016-04-04T16:44:39.681Z,17.4
2016-04-04T16:47:51.767Z,17.3
2016-04-04T16:51:04.103Z,17.2
2016-04-04T16:54:23.661Z,17.1
2016-04-04T16:57:28.216Z,17.1
2016-04-04T17:00:39.379Z,17.1
2016-04-04T17:03:50.560Z,17.1
2016-04-04T17:07:03.474Z,17.1
2016-04-04T17:10:22.235Z,17
2016-04-04T17:13:26.868Z,17
2016-04-04T17:16:38.989Z,17
2016-04-04T17:19:53.450Z,16.9
2016-04-04T17:23:07.943Z,16.9
2016-04-04T17:26:25.048Z,16.8
2016-04-04T17:29:29.931Z,16.8
2016-04-04T17:32:42.485Z,16.7
2016-04-04T17:35:56.603Z,16.6
2016-04-04T17:39:18.471Z,16.6
2016-04-04T17:42:23.408Z,16.5
2016-04-04T17:45:35.365Z,16.5
2016-04-04T17:48:49.743Z,16.4
2016-04-04T17:52:02.524Z,16.4
2016-04-04T17:55:22.044Z,16.3
2016-04-04T17:58:26.769Z,16.3
2016-04-04T18:01:41.338Z,16.2
2016-04-04T18:04:55.174Z,16.1
2016-04-04T18:08:09.697Z,16.1
2016-04-04T18:11:21.989Z,16
2016-04-04T18:14:36.373Z,16
2016-04-04T18:17:50.615Z,16
2016-04-04T18:21:02.326Z,15.9
2016-04-04T18:24:21.071Z,15.8
2016-04-04T18:27:26.238Z,15.8
2016-04-04T18:30:38.700Z,15.7
2016-04-04T18:33:52.895Z,15.7
2016-04-04T18:37:05.716Z,15.6
2016-04-04T18:40:23.383Z,15.6
2016-04-04T18:43:28.078Z,15.5
2016-04-04T18:46:39.133Z,15.5
2016-04-04T18:49:51.891Z,15.4
2016-04-04T18:53:04.149Z,15.3
2016-04-04T18:56:19.705Z,15.3
2016-04-04T18:59:24.106Z,15.2
2016-04-04T19:02:38.254Z,15.2
2016-04-04T19:05:50.497Z,15.1
2016-04-04T19:09:03.442Z,15
2016-04-04T19:12:21.373Z,14.9
2016-04-04T19:15:25.914Z,15
2016-04-04T19:18:40.172Z,15
2016-04-04T19:21:53.806Z,15
2016-04-04T19:25:07.971Z,14.9
2016-04-04T19:28:21.899Z,14.9
2016-04-04T19:31:34.426Z,14.9
2016-04-04T19:34:48.435Z,14.8
2016-04-04T19:38:02.396Z,14.8
2016-04-04T19:41:21.419Z,14.8
2016-04-04T19:44:25.615Z,14.8
2016-04-04T19:47:39.672Z,14.8
2016-04-04T19:50:53.008Z,14.7
2016-04-04T19:54:06.938Z,14.7
2016-04-04T19:57:22.665Z,14.7
2016-04-04T20:00:26.861Z,14.7
2016-04-04T20:03:38.404Z,14.6
2016-04-04T20:06:51.849Z,14.6
2016-04-04T20:10:05.903Z,14.6
2016-04-04T20:13:53.853Z,14.5
2016-04-04T20:17:01.486Z,14.5
2016-04-04T20:20:19.024Z,14.5
2016-04-04T20:23:23.314Z,14.5
2016-04-04T20:26:33.981Z,14.4
2016-04-04T20:29:45.021Z,14.4
2016-04-04T20:32:56.043Z,14.3
2016-04-04T20:36:06.990Z,14.2
2016-04-04T20:39:22.778Z,14.1
2016-04-04T20:42:26.943Z,14.1
2016-04-04T20:45:40.781Z,13.9
2016-04-04T20:48:54.524Z,13.9
2016-04-04T20:52:05.267Z,13.7
2016-04-04T20:55:21.494Z,13.7
2016-04-04T20:58:25.627Z,13.5
2016-04-04T21:01:36.466Z,13.5
2016-04-04T21:04:52.599Z,13.5
2016-04-04T21:08:06.294Z,13.4
2016-04-04T21:11:25.385Z,13.4
2016-04-04T21:14:29.597Z,13.4
2016-04-04T21:17:43.248Z,13.3
2016-04-04T21:20:57.100Z,13.2
2016-04-04T21:24:10.780Z,13.2
2016-04-04T21:27:24.991Z,13.1
2016-04-04T21:30:37.468Z,13.1
2016-04-04T21:33:45.807Z,13
2016-04-04T21:37:01.971Z,12.9
2016-04-04T21:40:13.073Z,12.8
2016-04-04T21:43:30.690Z,12.7
2016-04-04T21:46:40.136Z,12.6
2016-04-04T21:49:53.694Z,12.5
2016-04-04T21:53:07.733Z,12.4
2016-04-04T21:56:26.819Z,12.3
2016-04-04T21:59:31.124Z,12.3
2016-04-04T22:02:43.432Z,12.2
2016-04-04T22:05:55.315Z,12.2
2016-04-04T22:09:07.245Z,12.1
2016-04-04T22:12:23.237Z,12.1
2016-04-04T22:15:27.604Z,12
2016-04-04T22:18:41.769Z,12
2016-04-04T22:21:55.561Z,11.9
2016-04-04T22:25:06.147Z,11.9
2016-04-04T22:28:25.139Z,11.8
2016-04-04T22:31:29.413Z,11.8
2016-04-04T22:34:43.187Z,11.7
2016-04-04T22:37:56.901Z,11.6
2016-04-04T22:41:10.893Z,11.5
2016-04-04T22:44:24.840Z,11.4
2016-04-04T22:47:38.643Z,11.3
2016-04-04T22:50:52.342Z,11.3
2016-04-04T22:54:06.022Z,11.2
2016-04-04T22:57:23.733Z,11.1
2016-04-04T23:00:27.741Z,11.1
2016-04-04T23:03:38.515Z,11
2016-04-04T23:06:49.696Z,10.9
2016-04-04T23:10:02.955Z,10.9
2016-04-04T23:13:14.526Z,10.8
2016-04-04T23:16:27.581Z,10.8
2016-04-04T23:19:40.573Z,10.8
2016-04-04T23:22:51.350Z,10.8
2016-04-04T23:26:04.467Z,10.8
2016-04-04T23:29:22.397Z,10.7
2016-04-04T23:32:25.780Z,10.7
2016-04-04T23:35:36.101Z,10.7
2016-04-04T23:38:49.174Z,10.6
2016-04-04T23:42:00.307Z,10.5
2016-04-04T23:45:13.174Z,10.5
2016-04-04T23:48:26.151Z,10.5
2016-04-04T23:51:39.331Z,10.4
2016-04-04T23:54:49.655Z,10.4
2016-04-04T23:58:02.913Z,10.4
